createdAt,value
2022-12-12T00:00:34.834Z,24.30
2022-12-12T00:03:01.946Z,19.52
2022-12-12T00:05:29.041Z,21.70
2022-12-12T00:07:56.013Z,22.27
2022-12-12T00:10:23.054Z,24.67
2022-12-12T00:12:50.019Z,26.00
2022-12-12T00:15:17.018Z,22.05
2022-12-12T00:17:43.978Z,23.30
2022-12-12T00:20:11.085Z,21.05
2022-12-12T00:22:38.135Z,20.50
2022-12-12T00:25:05.414Z,26.13
2022-12-12T00:27:33.952Z,19.92
2022-12-12T00:30:00.931Z,21.70
2022-12-12T00:32:27.978Z,21.08
2022-12-12T00:34:54.914Z,22.00
2022-12-12T00:37:21.918Z,18.48
2022-12-12T00:39:48.920Z,23.63
2022-12-12T00:42:15.864Z,21.23
2022-12-12T00:44:42.838Z,21.38
2022-12-12T00:47:09.966Z,17.05
2022-12-12T00:49:37.139Z,18.48
2022-12-12T00:52:04.461Z,19.50
2022-12-12T00:54:31.669Z,21.10
2022-12-12T00:56:59.369Z,19.75
2022-12-12T00:59:26.432Z,22.60
2022-12-12T01:01:53.470Z,21.55
2022-12-12T01:04:20.474Z,18.75
2022-12-12T01:06:47.427Z,17.70
2022-12-12T01:09:14.434Z,18.80
2022-12-12T01:11:41.408Z,20.52
2022-12-12T01:14:08.441Z,19.33
2022-12-12T01:16:35.534Z,24.25
2022-12-12T01:19:02.561Z,18.05
2022-12-12T01:21:29.847Z,21.08
2022-12-12T01:23:56.850Z,17.08
2022-12-12T01:26:25.146Z,23.00
2022-12-12T01:28:52.911Z,17.58
2022-12-12T01:31:20.561Z,20.10
2022-12-12T01:33:47.500Z,16.15
2022-12-12T01:36:16.751Z,21.85
2022-12-12T01:38:48.605Z,20.35
2022-12-12T01:41:16.592Z,23.45
2022-12-12T01:43:44.085Z,16.60
2022-12-12T01:46:38.450Z,20.48
2022-12-12T01:49:11.135Z,16.98
2022-12-12T01:51:40.189Z,13.80
2022-12-12T01:54:23.459Z,14.60
2022-12-12T01:56:52.835Z,19.33
2022-12-12T01:59:23.091Z,16.42
2022-12-12T02:01:50.580Z,15.13
2022-12-12T02:04:18.518Z,18.83
2022-12-12T02:06:47.702Z,15.82
2022-12-12T02:09:16.702Z,14.38
2022-12-12T02:11:54.511Z,15.23
2022-12-12T02:14:27.914Z,13.82
2022-12-12T02:17:02.717Z,10.57
2022-12-12T02:19:51.287Z,13.25
2022-12-12T02:22:42.398Z,14.98
2022-12-12T02:25:34.446Z,16.27
2022-12-12T02:28:29.340Z,17.88
2022-12-12T02:31:08.506Z,12.52
2022-12-12T02:33:41.581Z,13.55
2022-12-12T02:36:28.052Z,14.90
2022-12-12T02:39:13.348Z,13.20
2022-12-12T02:41:51.363Z,14.48
2022-12-12T02:44:40.020Z,12.05
2022-12-12T02:47:19.425Z,11.30
2022-12-12T02:49:53.171Z,11.20
2022-12-12T02:52:20.986Z,11.30
2022-12-12T02:54:49.029Z,9.90
2022-12-12T02:57:26.932Z,12.73
2022-12-12T03:00:15.903Z,11.50
2022-12-12T03:03:57.657Z,10.95
2022-12-12T03:06:56.986Z,9.23
2022-12-12T03:09:48.907Z,14.98
2022-12-12T03:12:25.062Z,13.60
2022-12-12T03:14:57.439Z,10.20
2022-12-12T03:17:36.664Z,11.10
2022-12-12T03:20:11.144Z,9.25
2022-12-12T03:22:53.317Z,10.68
2022-12-12T03:25:28.722Z,13.55
2022-12-12T03:28:21.283Z,12.98
2022-12-12T03:30:55.376Z,10.75
2022-12-12T03:33:28.210Z,11.88
2022-12-12T03:36:08.544Z,11.00
2022-12-12T03:38:43.008Z,8.85
2022-12-12T03:41:19.114Z,11.45
2022-12-12T03:43:59.522Z,9.57
2022-12-12T03:46:38.461Z,10.35
2022-12-12T03:49:17.855Z,13.05
2022-12-12T03:51:51.289Z,12.00
2022-12-12T03:54:24.012Z,13.40
2022-12-12T03:57:19.439Z,9.32
2022-12-12T03:59:53.448Z,11.13
2022-12-12T04:02:33.565Z,12.23
2022-12-12T04:05:38.948Z,10.88
2022-12-12T04:08:16.457Z,10.25
2022-12-12T04:11:10.213Z,10.65
2022-12-12T04:13:59.353Z,8.52
2022-12-12T04:16:32.245Z,9.68
2022-12-12T04:19:08.557Z,9.38
2022-12-12T04:22:01.408Z,9.35
2022-12-12T04:25:10.115Z,11.18
2022-12-12T04:30:12.401Z,9.27
2022-12-12T04:32:49.138Z,10.20
2022-12-12T04:35:27.492Z,9.07
2022-12-12T04:38:02.703Z,11.43
2022-12-12T04:40:32.680Z,9.27
2022-12-12T04:43:05.339Z,11.05
2022-12-12T04:45:40.849Z,7.57
2022-12-12T04:48:10.646Z,9.63
2022-12-12T04:50:39.459Z,11.63
2022-12-12T04:53:17.956Z,10.63
2022-12-12T04:55:52.741Z,10.75
2022-12-12T04:58:19.769Z,6.90
2022-12-12T05:00:58.661Z,8.68
2022-12-12T05:03:46.832Z,8.05
2022-12-12T05:06:21.970Z,11.20
2022-12-12T05:08:52.023Z,10.68
2022-12-12T05:11:22.179Z,10.10
2022-12-12T05:13:49.995Z,7.85
2022-12-12T05:16:43.948Z,9.85
2022-12-12T05:19:10.921Z,9.82
2022-12-12T05:21:37.918Z,10.63
2022-12-12T05:24:05.262Z,8.18
2022-12-12T05:26:34.235Z,8.45
2022-12-12T05:29:06.905Z,8.23
2022-12-12T05:31:34.864Z,9.23
2022-12-12T05:34:01.952Z,8.50
2022-12-12T05:36:28.908Z,9.35
2022-12-12T05:38:55.864Z,9.30
2022-12-12T05:41:22.914Z,9.77
2022-12-12T05:43:49.886Z,7.93
2022-12-12T05:46:17.172Z,8.93
2022-12-12T05:48:44.717Z,8.45
2022-12-12T05:51:11.655Z,7.97
2022-12-12T05:53:42.780Z,8.55
2022-12-12T05:56:11.665Z,7.07
2022-12-12T05:58:40.514Z,8.93
2022-12-12T06:01:07.932Z,9.57
2022-12-12T06:03:35.804Z,9.05
2022-12-12T06:06:02.926Z,8.93
2022-12-12T06:08:30.122Z,10.70
2022-12-12T06:10:57.134Z,8.65
2022-12-12T06:13:24.152Z,8.18
2022-12-12T06:15:51.179Z,8.93
2022-12-12T06:18:18.160Z,7.57
2022-12-12T06:20:45.111Z,8.18
2022-12-12T06:23:12.140Z,7.55
2022-12-12T06:25:39.386Z,6.35
2022-12-12T06:28:06.382Z,7.45
2022-12-12T06:30:34.123Z,6.30
2022-12-12T06:33:01.041Z,7.63
2022-12-12T06:35:28.095Z,7.35
2022-12-12T06:37:55.039Z,8.35
2022-12-12T06:40:22.822Z,7.40
2022-12-12T06:42:49.747Z,7.93
2022-12-12T06:45:17.513Z,8.55
2022-12-12T06:47:44.782Z,7.22
2022-12-12T06:50:12.119Z,8.60
2022-12-12T06:52:39.047Z,8.05
2022-12-12T06:55:06.593Z,6.72
2022-12-12T06:57:33.674Z,6.82
2022-12-12T07:00:00.836Z,8.82
2022-12-12T07:02:30.217Z,6.20
2022-12-12T07:04:58.236Z,6.50
2022-12-12T07:07:25.262Z,6.68
2022-12-12T07:09:52.401Z,8.23
2022-12-12T07:12:19.415Z,7.25
2022-12-12T07:14:46.442Z,7.43
2022-12-12T07:17:13.423Z,9.13
2022-12-12T07:19:40.465Z,9.07
2022-12-12T07:22:10.182Z,9.15
2022-12-12T07:24:38.176Z,9.75
2022-12-12T07:27:07.262Z,9.98
2022-12-12T07:29:34.538Z,8.90
2022-12-12T07:32:01.512Z,8.68
2022-12-12T07:34:32.618Z,11.90
2022-12-12T07:37:03.056Z,10.82
2022-12-12T07:39:32.650Z,12.38
2022-12-12T07:42:00.143Z,11.75
2022-12-12T07:44:27.258Z,11.68
2022-12-12T07:46:54.272Z,13.82
2022-12-12T07:49:21.358Z,11.40
2022-12-12T07:51:49.446Z,9.93
2022-12-12T07:54:16.834Z,10.10
2022-12-12T07:56:43.762Z,10.75
2022-12-12T07:59:10.717Z,10.38
2022-12-12T08:01:37.864Z,10.38
2022-12-12T08:04:05.422Z,9.30
2022-12-12T08:06:32.421Z,13.70
2022-12-12T08:08:59.342Z,12.43
2022-12-12T08:11:26.342Z,12.48
2022-12-12T08:13:53.909Z,14.18
2022-12-12T08:16:29.249Z,12.82
2022-12-12T08:18:58.398Z,13.15
2022-12-12T08:21:27.224Z,12.85
2022-12-12T08:23:58.427Z,12.32
2022-12-12T08:26:27.192Z,13.27
2022-12-12T08:28:55.890Z,17.33
2022-12-12T08:31:23.975Z,18.15
2022-12-12T08:33:51.523Z,12.95
2022-12-12T08:36:21.333Z,16.15
2022-12-12T08:38:49.309Z,12.93
2022-12-12T08:41:16.685Z,13.02
2022-12-12T08:43:44.651Z,13.10
2022-12-12T08:46:17.409Z,11.90
2022-12-12T08:48:45.708Z,15.43
2022-12-12T08:51:12.895Z,10.57
2022-12-12T08:53:39.933Z,12.82
2022-12-12T08:56:07.371Z,11.70
2022-12-12T08:58:34.324Z,11.55
2022-12-12T09:01:01.359Z,12.52
2022-12-12T09:03:29.852Z,8.82
2022-12-12T09:05:57.094Z,12.00
2022-12-12T09:08:24.670Z,9.93
2022-12-12T09:10:51.854Z,10.52
2022-12-12T09:13:20.146Z,10.18
2022-12-12T09:15:51.418Z,8.93
2022-12-12T09:18:20.146Z,8.38
2022-12-12T09:20:51.805Z,10.57
2022-12-12T09:23:19.490Z,12.27
2022-12-12T09:25:46.779Z,10.82
2022-12-12T09:28:16.406Z,10.88
2022-12-12T09:30:44.553Z,11.65
2022-12-12T09:33:12.346Z,10.35
2022-12-12T09:35:39.403Z,10.52
2022-12-12T09:38:12.455Z,12.88
2022-12-12T09:41:02.807Z,11.98
2022-12-12T09:43:43.528Z,14.45
2022-12-12T09:46:58.503Z,18.48
2022-12-12T09:49:31.547Z,13.40
2022-12-12T09:52:00.171Z,12.85
2022-12-12T09:54:28.291Z,15.57
2022-12-12T09:57:04.130Z,15.48
2022-12-12T10:00:10.189Z,16.35
2022-12-12T10:02:54.759Z,18.52
2022-12-12T10:05:27.647Z,18.02
2022-12-12T10:08:00.818Z,19.45
2022-12-12T10:10:30.127Z,19.10
2022-12-12T10:12:59.742Z,20.40
2022-12-12T10:15:32.552Z,14.73
2022-12-12T10:18:03.032Z,15.52
2022-12-12T10:20:33.630Z,14.85
2022-12-12T10:23:35.155Z,17.45
2022-12-12T10:26:07.335Z,18.58
2022-12-12T10:28:35.616Z,21.00
2022-12-12T10:31:24.533Z,22.83
2022-12-12T10:34:19.051Z,17.23
2022-12-12T10:37:04.897Z,17.23
2022-12-12T10:39:51.375Z,21.33
2022-12-12T10:42:30.329Z,15.52
2022-12-12T10:45:15.610Z,15.60
2022-12-12T10:47:42.914Z,20.60
2022-12-12T10:50:21.782Z,16.60
2022-12-12T10:52:49.121Z,19.65
2022-12-12T10:55:23.292Z,21.27
2022-12-12T10:58:02.218Z,19.50
2022-12-12T11:00:35.189Z,23.55
2022-12-12T11:03:29.056Z,19.63
2022-12-12T11:05:57.247Z,20.33
2022-12-12T11:08:31.449Z,19.38
2022-12-12T11:11:21.755Z,18.25
2022-12-12T11:13:53.483Z,19.52
2022-12-12T11:16:40.593Z,20.30
2022-12-12T11:19:25.003Z,22.60
2022-12-12T11:21:56.220Z,22.73
2022-12-12T11:24:29.955Z,20.10
2022-12-12T11:27:01.477Z,25.50
2022-12-12T11:29:36.514Z,22.40
2022-12-12T11:32:04.828Z,22.73
2022-12-12T11:34:36.645Z,23.90
2022-12-12T11:37:04.181Z,21.02
2022-12-12T11:39:41.579Z,27.17
2022-12-12T11:42:14.401Z,21.50
2022-12-12T11:44:43.727Z,20.33
2022-12-12T11:47:23.104Z,22.05
2022-12-12T11:49:56.583Z,17.80
2022-12-12T11:52:28.617Z,26.80
2022-12-12T11:54:56.565Z,18.63
2022-12-12T11:57:44.974Z,18.50
2022-12-12T12:00:58.173Z,21.75
2022-12-12T12:04:03.839Z,19.08
2022-12-12T12:06:52.231Z,17.20
2022-12-12T12:09:51.029Z,15.55
2022-12-12T12:12:24.826Z,16.17
2022-12-12T12:15:21.360Z,17.85
2022-12-12T12:17:58.053Z,16.95
2022-12-12T12:20:33.614Z,15.55
2022-12-12T12:23:42.591Z,17.17
2022-12-12T12:26:43.581Z,16.42
2022-12-12T12:29:35.966Z,16.35
2022-12-12T12:32:21.319Z,18.80
2022-12-12T12:35:19.645Z,15.82
2022-12-12T12:38:15.015Z,15.50
2022-12-12T12:40:44.862Z,13.82
2022-12-12T12:43:41.016Z,15.13
2022-12-12T12:46:34.909Z,12.48
2022-12-12T12:49:17.819Z,15.23
2022-12-12T12:51:52.036Z,15.00
2022-12-12T12:55:02.397Z,14.35
2022-12-12T12:57:35.272Z,11.90
2022-12-12T13:00:16.313Z,15.88
2022-12-12T13:02:50.520Z,13.73
2022-12-12T13:05:29.290Z,16.40
2022-12-12T13:08:17.779Z,11.93
2022-12-12T13:10:48.459Z,12.82
2022-12-12T13:13:30.863Z,10.77
2022-12-12T13:16:07.827Z,11.15
2022-12-12T13:18:45.192Z,12.25
2022-12-12T13:21:39.050Z,13.15
2022-12-12T13:24:10.116Z,12.95
2022-12-12T13:26:55.922Z,12.20
2022-12-12T13:29:29.679Z,13.55
2022-12-12T13:32:27.675Z,9.82
2022-12-12T13:35:00.390Z,8.70
2022-12-12T13:37:32.447Z,9.98
2022-12-12T13:40:02.324Z,9.30
2022-12-12T13:43:09.665Z,8.85
2022-12-12T13:45:41.119Z,8.65
2022-12-12T13:48:44.490Z,8.90
2022-12-12T13:51:28.857Z,8.70
2022-12-12T13:54:12.799Z,8.63
2022-12-12T13:56:55.462Z,8.93
2022-12-12T13:59:22.441Z,10.93
2022-12-12T14:02:19.057Z,8.45
2022-12-12T14:04:46.761Z,8.93
2022-12-12T14:07:18.300Z,7.43
2022-12-12T14:09:49.506Z,8.00
2022-12-12T14:12:23.715Z,10.20
2022-12-12T14:14:57.615Z,9.40
2022-12-12T14:17:29.588Z,6.68
2022-12-12T14:19:59.602Z,7.28
2022-12-12T14:22:38.569Z,6.72
2022-12-12T14:25:39.359Z,7.35
2022-12-12T14:28:31.539Z,6.70
2022-12-12T14:31:08.365Z,6.90
2022-12-12T14:33:50.334Z,8.18
2022-12-12T14:36:23.190Z,6.90
2022-12-12T14:39:14.596Z,6.57
2022-12-12T14:41:44.467Z,7.75
2022-12-12T14:44:37.817Z,7.53
2022-12-12T14:47:09.508Z,8.40
2022-12-12T14:49:36.712Z,9.05
2022-12-12T14:52:04.052Z,6.38
2022-12-12T14:54:31.291Z,6.85
2022-12-12T14:56:59.916Z,5.72
2022-12-12T14:59:44.940Z,7.20
2022-12-12T15:02:19.212Z,6.88
2022-12-12T15:04:49.712Z,6.85
2022-12-12T15:07:28.508Z,5.75
2022-12-12T15:09:56.204Z,6.05
2022-12-12T15:12:32.955Z,7.75
2022-12-12T15:15:00.769Z,7.10
2022-12-12T15:17:31.108Z,6.50
2022-12-12T15:20:28.769Z,7.05
2022-12-12T15:23:02.290Z,7.85
2022-12-12T15:25:32.818Z,8.88
2022-12-12T15:28:01.506Z,6.90
2022-12-12T15:30:39.551Z,6.30
2022-12-12T15:33:17.398Z,7.97
2022-12-12T15:35:56.353Z,6.72
2022-12-12T15:38:27.684Z,8.02
2022-12-12T15:40:58.826Z,7.20
2022-12-12T15:43:30.925Z,6.38
2022-12-12T15:46:14.577Z,8.43
2022-12-12T15:48:49.628Z,7.53
2022-12-12T15:51:24.728Z,6.13
2022-12-12T15:53:53.939Z,6.45
2022-12-12T15:56:20.868Z,6.72
2022-12-12T15:59:13.442Z,6.10
2022-12-12T16:01:41.370Z,7.55
2022-12-12T16:04:11.559Z,6.28
2022-12-12T16:06:48.878Z,6.43
2022-12-12T16:09:24.902Z,10.30
2022-12-12T16:11:51.874Z,7.18
2022-12-12T16:14:40.039Z,7.40
2022-12-12T16:17:13.622Z,7.10
2022-12-12T16:20:07.420Z,6.93
2022-12-12T16:22:47.707Z,9.00
2022-12-12T16:25:19.257Z,7.82
2022-12-12T16:27:51.114Z,7.28
2022-12-12T16:30:18.387Z,6.68
2022-12-12T16:32:45.527Z,5.85
2022-12-12T16:35:20.883Z,6.13
2022-12-12T16:37:48.588Z,7.25
2022-12-12T16:40:17.691Z,8.65
2022-12-12T16:42:49.992Z,7.03
2022-12-12T16:45:17.086Z,8.68
2022-12-12T16:47:44.024Z,8.85
2022-12-12T16:50:13.600Z,7.35
2022-12-12T16:52:40.769Z,7.72
2022-12-12T16:55:21.065Z,9.00
2022-12-12T16:57:48.052Z,7.47
2022-12-12T17:00:15.680Z,7.50
2022-12-12T17:02:43.052Z,8.38
2022-12-12T17:05:18.278Z,7.60
2022-12-12T17:07:45.454Z,7.05
2022-12-12T17:10:13.136Z,7.47
2022-12-12T17:12:40.689Z,6.32
2022-12-12T17:15:08.187Z,7.60
2022-12-12T17:17:35.144Z,9.88
2022-12-12T17:20:02.131Z,7.45
2022-12-12T17:22:31.126Z,8.43
2022-12-12T17:24:58.085Z,6.18
2022-12-12T17:27:25.797Z,8.48
2022-12-12T17:29:52.821Z,8.55
2022-12-12T17:32:24.211Z,7.22
2022-12-12T17:34:51.608Z,7.70
2022-12-12T17:37:18.606Z,6.72
2022-12-12T17:39:45.818Z,7.65
2022-12-12T17:42:12.998Z,6.68
2022-12-12T17:44:39.995Z,7.43
2022-12-12T17:47:07.348Z,6.68
2022-12-12T17:49:35.841Z,6.45
2022-12-12T17:52:04.222Z,7.20
2022-12-12T17:54:31.336Z,9.38
2022-12-12T17:56:58.449Z,6.82
2022-12-12T17:59:25.519Z,7.10
2022-12-12T18:01:55.611Z,6.68
2022-12-12T18:04:28.070Z,5.93
2022-12-12T18:06:55.780Z,5.47
2022-12-12T18:09:22.730Z,5.18
2022-12-12T18:11:49.709Z,7.97
2022-12-12T18:14:18.680Z,6.20
2022-12-12T18:16:51.448Z,6.18
2022-12-12T18:19:22.185Z,5.80
2022-12-12T18:22:05.342Z,6.75
2022-12-12T18:24:36.365Z,5.72
2022-12-12T18:27:05.474Z,7.38
2022-12-12T18:29:32.631Z,5.82
2022-12-12T18:31:59.877Z,5.97
2022-12-12T18:34:26.929Z,6.07
2022-12-12T18:36:54.198Z,8.45
2022-12-12T18:39:21.190Z,5.50
2022-12-12T18:41:48.223Z,5.57
2022-12-12T18:44:15.853Z,6.63
2022-12-12T18:46:43.910Z,6.28
2022-12-12T18:49:15.184Z,7.45
2022-12-12T18:51:43.732Z,6.68
2022-12-12T18:54:15.368Z,6.00
2022-12-12T18:56:45.395Z,5.97
2022-12-12T18:59:12.962Z,5.43
2022-12-12T19:01:40.045Z,6.95
2022-12-12T19:04:12.577Z,6.07
2022-12-12T19:06:42.272Z,6.03
2022-12-12T19:09:16.792Z,5.97
2022-12-12T19:11:44.552Z,7.72
2022-12-12T19:14:13.765Z,7.72
2022-12-12T19:16:41.675Z,6.63
2022-12-12T19:19:12.454Z,6.38
2022-12-12T19:21:41.180Z,8.35
2022-12-12T19:24:09.445Z,6.32
2022-12-12T19:26:38.259Z,6.40
2022-12-12T19:29:08.064Z,6.38
2022-12-12T19:31:36.147Z,6.07
2022-12-12T19:34:08.023Z,6.80
2022-12-12T19:36:35.969Z,7.07
2022-12-12T19:39:05.496Z,6.45
2022-12-12T19:41:32.970Z,7.00
2022-12-12T19:44:04.879Z,5.47
2022-12-12T19:46:33.131Z,5.65
2022-12-12T19:49:02.840Z,16.30
2022-12-12T19:51:32.899Z,6.47
2022-12-12T19:54:00.623Z,6.85
2022-12-12T19:56:30.820Z,6.38
2022-12-12T19:58:58.847Z,6.47
2022-12-12T20:01:31.339Z,5.65
2022-12-12T20:04:02.684Z,6.50
2022-12-12T20:06:29.828Z,6.20
2022-12-12T20:08:58.536Z,6.72
2022-12-12T20:11:25.846Z,6.70
2022-12-12T20:13:57.277Z,7.13
2022-12-12T20:16:27.887Z,6.93
2022-12-12T20:18:57.511Z,6.32
2022-12-12T20:21:59.898Z,5.60
2022-12-12T20:24:17.596Z,5.53
2022-12-12T20:26:46.021Z,5.60
2022-12-12T20:29:14.413Z,4.72
2022-12-12T20:31:44.468Z,5.80
2022-12-12T20:34:15.906Z,6.40
2022-12-12T20:36:56.867Z,4.82
2022-12-12T20:39:26.056Z,6.43
2022-12-12T20:41:53.974Z,5.85
2022-12-12T20:44:22.611Z,5.65
2022-12-12T20:46:51.215Z,5.22
2022-12-12T20:49:19.902Z,5.63
2022-12-12T20:51:56.315Z,5.90
2022-12-12T20:54:27.662Z,7.10
2022-12-12T20:56:57.953Z,5.85
2022-12-12T20:59:26.673Z,6.32
2022-12-12T21:01:54.193Z,5.63
2022-12-12T21:04:22.081Z,7.15
2022-12-12T21:06:57.609Z,5.78
2022-12-12T21:09:37.660Z,5.78
2022-12-12T21:12:04.791Z,7.00
2022-12-12T21:14:35.093Z,4.80
2022-12-12T21:17:02.097Z,5.68
2022-12-12T21:19:29.440Z,6.90
2022-12-12T21:21:56.659Z,5.88
2022-12-12T21:24:23.664Z,5.13
2022-12-12T21:26:50.843Z,4.93
2022-12-12T21:29:18.016Z,4.47
2022-12-12T21:31:50.942Z,5.22
2022-12-12T21:34:20.755Z,7.55
2022-12-12T21:36:50.741Z,5.60
2022-12-12T21:39:17.722Z,5.47
2022-12-12T21:41:44.854Z,6.35
2022-12-12T21:44:11.885Z,5.47
2022-12-12T21:46:42.035Z,6.07
2022-12-12T21:49:28.033Z,6.03
2022-12-12T21:51:57.923Z,4.78
2022-12-12T21:54:25.816Z,6.03
2022-12-12T21:56:53.042Z,4.88
2022-12-12T21:59:19.986Z,5.10
2022-12-12T22:01:47.003Z,4.90
2022-12-12T22:04:14.107Z,5.20
2022-12-12T22:06:41.091Z,5.35
2022-12-12T22:09:10.567Z,4.88
2022-12-12T22:11:47.538Z,5.63
2022-12-12T22:14:18.846Z,4.70
2022-12-12T22:16:46.295Z,4.90
2022-12-12T22:19:14.807Z,4.63
2022-12-12T22:21:43.907Z,5.07
2022-12-12T22:24:10.951Z,5.25
2022-12-12T22:26:41.146Z,5.00
2022-12-12T22:29:11.822Z,5.68
2022-12-12T22:31:39.810Z,6.45
2022-12-12T22:34:13.377Z,5.28
2022-12-12T22:36:40.840Z,5.43
2022-12-12T22:39:13.789Z,5.15
2022-12-12T22:41:40.806Z,5.20
2022-12-12T22:44:07.751Z,5.25
2022-12-12T22:46:39.250Z,5.65
2022-12-12T22:49:11.437Z,5.03
2022-12-12T22:51:38.520Z,6.22
2022-12-12T22:54:05.945Z,4.90
2022-12-12T22:56:35.154Z,6.03
2022-12-12T22:59:02.178Z,7.22
2022-12-12T23:01:29.550Z,5.10
2022-12-12T23:03:57.150Z,5.55
2022-12-12T23:06:30.627Z,4.82
2022-12-12T23:09:02.840Z,4.55
2022-12-12T23:11:31.024Z,4.57
2022-12-12T23:14:04.061Z,4.50
2022-12-12T23:16:31.301Z,4.57
2022-12-12T23:18:59.082Z,4.47
2022-12-12T23:21:27.167Z,6.43
2022-12-12T23:23:55.607Z,5.70
2022-12-12T23:26:29.958Z,4.55
2022-12-12T23:28:58.457Z,5.25
2022-12-12T23:31:33.892Z,4.43
2022-12-12T23:34:05.106Z,5.03
2022-12-12T23:36:32.572Z,4.70
2022-12-12T23:39:02.131Z,4.15
2022-12-12T23:41:29.951Z,4.53
2022-12-12T23:43:57.025Z,4.43
2022-12-12T23:46:33.602Z,4.40
2022-12-12T23:49:06.626Z,4.60
2022-12-12T23:51:55.749Z,5.22
2022-12-12T23:54:32.250Z,3.92
2022-12-12T23:57:00.047Z,4.18
2022-12-12T23:59:27.843Z,4.07
